sensor_id;sensor_type;location;lat;lon;timestamp;pressure;altitude;pressure_sealevel;temperature
19102;BMP280;9683;49.028;12.064;2023-12-20T00:00:55;97132.50;;;6.06
19102;BMP280;9683;49.028;12.064;2023-12-20T00:03:21;97131.50;;;6.07
19102;BMP280;9683;49.028;12.064;2023-12-20T00:05:49;97077.56;;;5.82
19102;BMP280;9683;49.028;12.064;2023-12-20T00:08:16;97090.44;;;5.98
19102;BMP280;9683;49.028;12.064;2023-12-20T00:10:43;97063.38;;;5.83
19102;BMP280;9683;49.028;12.064;2023-12-20T00:13:10;97091.69;;;6.02
19102;BMP280;9683;49.028;12.064;2023-12-20T00:15:36;97101.47;;;6.15
19102;BMP280;9683;49.028;12.064;2023-12-20T00:18:05;97101.09;;;6.18
19102;BMP280;9683;49.028;12.064;2023-12-20T00:20:31;97033.94;;;5.79
19102;BMP280;9683;49.028;12.064;2023-12-20T00:22:58;97068.53;;;5.97
19102;BMP280;9683;49.028;12.064;2023-12-20T00:25:24;97097.41;;;6.19
19102;BMP280;9683;49.028;12.064;2023-12-20T00:27:51;97089.31;;;6.20
19102;BMP280;9683;49.028;12.064;2023-12-20T00:30:18;97058.81;;;6.05
19102;BMP280;9683;49.028;12.064;2023-12-20T00:32:45;97085.47;;;6.23
19102;BMP280;9683;49.028;12.064;2023-12-20T00:35:13;97062.91;;;6.14
19102;BMP280;9683;49.028;12.064;2023-12-20T00:37:40;97080.78;;;6.25
19102;BMP280;9683;49.028;12.064;2023-12-20T00:40:08;97068.56;;;6.11
19102;BMP280;9683;49.028;12.064;2023-12-20T00:42:34;97079.97;;;6.24
19102;BMP280;9683;49.028;12.064;2023-12-20T00:45:02;97069.63;;;6.23
19102;BMP280;9683;49.028;12.064;2023-12-20T00:47:29;97025.06;;;5.93
19102;BMP280;9683;49.028;12.064;2023-12-20T00:49:57;97056.81;;;6.13
19102;BMP280;9683;49.028;12.064;2023-12-20T00:52:25;97034.63;;;6.01
19102;BMP280;9683;49.028;12.064;2023-12-20T00:54:51;97041.75;;;6.01
19102;BMP280;9683;49.028;12.064;2023-12-20T00:57:18;97079.19;;;6.30
19102;BMP280;9683;49.028;12.064;2023-12-20T00:59:44;97077.38;;;6.31
19102;BMP280;9683;49.028;12.064;2023-12-20T01:02:11;97085.06;;;6.32
19102;BMP280;9683;49.028;12.064;2023-12-20T01:04:37;97079.59;;;6.34
19102;BMP280;9683;49.028;12.064;2023-12-20T01:07:04;97080.81;;;6.38
19102;BMP280;9683;49.028;12.064;2023-12-20T01:09:32;97093.22;;;6.44
19102;BMP280;9683;49.028;12.064;2023-12-20T01:11:59;97087.72;;;6.45
19102;BMP280;9683;49.028;12.064;2023-12-20T01:14:25;97083.47;;;6.44
19102;BMP280;9683;49.028;12.064;2023-12-20T01:16:52;97083.06;;;6.48
19102;BMP280;9683;49.028;12.064;2023-12-20T01:19:18;97082.84;;;6.49
19102;BMP280;9683;49.028;12.064;2023-12-20T01:21:44;97091.59;;;6.50
19102;BMP280;9683;49.028;12.064;2023-12-20T01:24:11;97090.78;;;6.49
19102;BMP280;9683;49.028;12.064;2023-12-20T01:26:39;97092.22;;;6.52
19102;BMP280;9683;49.028;12.064;2023-12-20T01:29:05;97083.69;;;6.50
19102;BMP280;9683;49.028;12.064;2023-12-20T01:31:32;97084.50;;;6.50
19102;BMP280;9683;49.028;12.064;2023-12-20T01:33:58;97061.50;;;6.37
19102;BMP280;9683;49.028;12.064;2023-12-20T01:36:25;97075.56;;;6.51
19102;BMP280;9683;49.028;12.064;2023-12-20T01:38:52;97068.03;;;6.48
19102;BMP280;9683;49.028;12.064;2023-12-20T01:41:18;97058.88;;;6.51
19102;BMP280;9683;49.028;12.064;2023-12-20T01:43:46;97047.91;;;6.47
19102;BMP280;9683;49.028;12.064;2023-12-20T01:46:13;97056.66;;;6.48
19102;BMP280;9683;49.028;12.064;2023-12-20T01:48:41;97052.78;;;6.43
19102;BMP280;9683;49.028;12.064;2023-12-20T01:51:07;97039.56;;;6.37
19102;BMP280;9683;49.028;12.064;2023-12-20T01:53:34;97057.66;;;6.53
19102;BMP280;9683;49.028;12.064;2023-12-20T01:56:01;97044.03;;;6.50
19102;BMP280;9683;49.028;12.064;2023-12-20T01:58:28;97044.47;;;6.60
19102;BMP280;9683;49.028;12.064;2023-12-20T02:00:57;97031.44;;;6.58
19102;BMP280;9683;49.028;12.064;2023-12-20T02:03:23;97035.53;;;6.61
19102;BMP280;9683;49.028;12.064;2023-12-20T02:05:50;97046.28;;;6.66
19102;BMP280;9683;49.028;12.064;2023-12-20T02:08:16;97000.75;;;6.37
19102;BMP280;9683;49.028;12.064;2023-12-20T02:10:43;97033.69;;;6.55
19102;BMP280;9683;49.028;12.064;2023-12-20T02:13:10;97044.66;;;6.58
19102;BMP280;9683;49.028;12.064;2023-12-20T02:15:36;97043.25;;;6.56
19102;BMP280;9683;49.028;12.064;2023-12-20T02:18:06;97030.63;;;6.58
19102;BMP280;9683;49.028;12.064;2023-12-20T02:20:32;97025.34;;;6.58
19102;BMP280;9683;49.028;12.064;2023-12-20T02:23:00;97020.69;;;6.60
19102;BMP280;9683;49.028;12.064;2023-12-20T02:25:27;97017.22;;;6.59
19102;BMP280;9683;49.028;12.064;2023-12-20T02:27:53;97014.41;;;6.61
19102;BMP280;9683;49.028;12.064;2023-12-20T02:30:20;97010.72;;;6.62
19102;BMP280;9683;49.028;12.064;2023-12-20T02:32:47;97010.31;;;6.65
19102;BMP280;9683;49.028;12.064;2023-12-20T02:35:14;97011.34;;;6.64
19102;BMP280;9683;49.028;12.064;2023-12-20T02:37:41;96942.03;;;6.29
19102;BMP280;9683;49.028;12.064;2023-12-20T02:40:09;97004.00;;;6.66
19102;BMP280;9683;49.028;12.064;2023-12-20T02:42:36;97003.19;;;6.65
19102;BMP280;9683;49.028;12.064;2023-12-20T02:45:02;96942.88;;;6.23
19102;BMP280;9683;49.028;12.064;2023-12-20T02:47:29;97007.25;;;6.68
19102;BMP280;9683;49.028;12.064;2023-12-20T02:49:56;97001.97;;;6.68
19102;BMP280;9683;49.028;12.064;2023-12-20T02:52:23;97002.56;;;6.70
19102;BMP280;9683;49.028;12.064;2023-12-20T02:54:49;96999.94;;;6.70
19102;BMP280;9683;49.028;12.064;2023-12-20T02:57:17;97004.84;;;6.73
19102;BMP280;9683;49.028;12.064;2023-12-20T02:59:44;96998.72;;;6.72
19102;BMP280;9683;49.028;12.064;2023-12-20T03:02:10;96990.63;;;6.61
19102;BMP280;9683;49.028;12.064;2023-12-20T03:04:37;97001.38;;;6.72
19102;BMP280;9683;49.028;12.064;2023-12-20T03:07:03;97008.28;;;6.73
19102;BMP280;9683;49.028;12.064;2023-12-20T03:09:30;97000.56;;;6.72
19102;BMP280;9683;49.028;12.064;2023-12-20T03:11:56;96993.66;;;6.77
19102;BMP280;9683;49.028;12.064;2023-12-20T03:14:24;96986.50;;;6.78
19102;BMP280;9683;49.028;12.064;2023-12-20T03:16:50;96978.56;;;6.78
19102;BMP280;9683;49.028;12.064;2023-12-20T03:19:17;96970.66;;;6.71
19102;BMP280;9683;49.028;12.064;2023-12-20T03:21:45;96964.75;;;6.76
19102;BMP280;9683;49.028;12.064;2023-12-20T03:24:11;96981.41;;;6.83
19102;BMP280;9683;49.028;12.064;2023-12-20T03:26:38;96969.22;;;6.82
19102;BMP280;9683;49.028;12.064;2023-12-20T03:29:04;96967.00;;;6.79
19102;BMP280;9683;49.028;12.064;2023-12-20T03:31:32;96973.88;;;6.86
19102;BMP280;9683;49.028;12.064;2023-12-20T03:33:59;96969.84;;;6.84
19102;BMP280;9683;49.028;12.064;2023-12-20T03:36:25;96967.38;;;6.82
19102;BMP280;9683;49.028;12.064;2023-12-20T03:38:52;96951.16;;;6.72
19102;BMP280;9683;49.028;12.064;2023-12-20T03:41:18;96977.75;;;6.90
19102;BMP280;9683;49.028;12.064;2023-12-20T03:43:45;96965.34;;;6.84
19102;BMP280;9683;49.028;12.064;2023-12-20T03:46:11;96973.28;;;6.84
19102;BMP280;9683;49.028;12.064;2023-12-20T03:48:39;96988.94;;;6.93
19102;BMP280;9683;49.028;12.064;2023-12-20T03:51:05;96984.69;;;6.85
19102;BMP280;9683;49.028;12.064;2023-12-20T03:53:32;96993.59;;;6.90
19102;BMP280;9683;49.028;12.064;2023-12-20T03:55:59;96999.31;;;6.87
19102;BMP280;9683;49.028;12.064;2023-12-20T03:58:25;96992.63;;;6.85
19102;BMP280;9683;49.028;12.064;2023-12-20T04:00:52;96996.66;;;6.87
19102;BMP280;9683;49.028;12.064;2023-12-20T04:03:18;96969.44;;;6.80
19102;BMP280;9683;49.028;12.064;2023-12-20T04:05:46;96994.03;;;6.87
19102;BMP280;9683;49.028;12.064;2023-12-20T04:08:13;96991.38;;;6.87
19102;BMP280;9683;49.028;12.064;2023-12-20T04:10:39;96990.78;;;6.85
19102;BMP280;9683;49.028;12.064;2023-12-20T04:13:05;96998.28;;;6.88
19102;BMP280;9683;49.028;12.064;2023-12-20T04:15:32;97001.75;;;6.89
19102;BMP280;9683;49.028;12.064;2023-12-20T04:17:59;97005.41;;;6.88
19102;BMP280;9683;49.028;12.064;2023-12-20T04:20:26;96928.41;;;6.45
19102;BMP280;9683;49.028;12.064;2023-12-20T04:22:54;96997.47;;;6.88
19102;BMP280;9683;49.028;12.064;2023-12-20T04:25:20;97007.47;;;6.86
19102;BMP280;9683;49.028;12.064;2023-12-20T04:27:47;97009.28;;;6.85
19102;BMP280;9683;49.028;12.064;2023-12-20T04:30:13;97001.94;;;6.87
19102;BMP280;9683;49.028;12.064;2023-12-20T04:32:40;97001.13;;;6.87
19102;BMP280;9683;49.028;12.064;2023-12-20T04:35:06;96997.09;;;6.84
19102;BMP280;9683;49.028;12.064;2023-12-20T04:37:33;96979.81;;;6.69
19102;BMP280;9683;49.028;12.064;2023-12-20T04:40:01;96987.53;;;6.77
19102;BMP280;9683;49.028;12.064;2023-12-20T04:42:28;97007.84;;;6.89
19102;BMP280;9683;49.028;12.064;2023-12-20T04:44:55;97014.16;;;6.88
19102;BMP280;9683;49.028;12.064;2023-12-20T04:47:21;96997.50;;;6.81
19102;BMP280;9683;49.028;12.064;2023-12-20T04:49:48;96983.28;;;6.76
19102;BMP280;9683;49.028;12.064;2023-12-20T04:52:14;96984.69;;;6.72
19102;BMP280;9683;49.028;12.064;2023-12-20T04:54:41;97011.31;;;6.83
19102;BMP280;9683;49.028;12.064;2023-12-20T04:57:09;96982.25;;;6.77
19102;BMP280;9683;49.028;12.064;2023-12-20T04:59:35;97004.59;;;6.87
19102;BMP280;9683;49.028;12.064;2023-12-20T05:02:02;96975.53;;;6.74
19102;BMP280;9683;49.028;12.064;2023-12-20T05:04:29;96992.00;;;6.83
19102;BMP280;9683;49.028;12.064;2023-12-20T05:06:55;96978.19;;;6.81
19102;BMP280;9683;49.028;12.064;2023-12-20T05:09:22;97003.16;;;6.91
19102;BMP280;9683;49.028;12.064;2023-12-20T05:11:48;96998.09;;;6.90
19102;BMP280;9683;49.028;12.064;2023-12-20T05:14:16;97001.34;;;6.92
19102;BMP280;9683;49.028;12.064;2023-12-20T05:16:43;96995.84;;;6.87
19102;BMP280;9683;49.028;12.064;2023-12-20T05:19:09;96980.22;;;6.72
19102;BMP280;9683;49.028;12.064;2023-12-20T05:21:36;97009.28;;;6.85
19102;BMP280;9683;49.028;12.064;2023-12-20T05:24:03;97009.06;;;6.87
19102;BMP280;9683;49.028;12.064;2023-12-20T05:26:29;97020.25;;;6.89
19102;BMP280;9683;49.028;12.064;2023-12-20T05:28:56;97016.19;;;6.86
19102;BMP280;9683;49.028;12.064;2023-12-20T05:31:24;97021.66;;;6.91
19102;BMP280;9683;49.028;12.064;2023-12-20T05:33:50;97025.94;;;6.93
19102;BMP280;9683;49.028;12.064;2023-12-20T05:36:17;97031.03;;;6.94
19102;BMP280;9683;49.028;12.064;2023-12-20T05:38:44;97012.34;;;6.89
19102;BMP280;9683;49.028;12.064;2023-12-20T05:41:10;97027.97;;;6.97
19102;BMP280;9683;49.028;12.064;2023-12-20T05:43:37;97009.88;;;6.87
19102;BMP280;9683;49.028;12.064;2023-12-20T05:46:03;97031.22;;;6.99
19102;BMP280;9683;49.028;12.064;2023-12-20T05:48:31;97030.41;;;6.92
19102;BMP280;9683;49.028;12.064;2023-12-20T05:50:58;97038.56;;;6.97
19102;BMP280;9683;49.028;12.064;2023-12-20T05:53:24;97036.53;;;6.93
19102;BMP280;9683;49.028;12.064;2023-12-20T05:55:51;97052.97;;;6.95
19102;BMP280;9683;49.028;12.064;2023-12-20T05:58:17;97063.34;;;6.96
19102;BMP280;9683;49.028;12.064;2023-12-20T06:00:44;97055.22;;;6.91
19102;BMP280;9683;49.028;12.064;2023-12-20T06:03:10;97067.63;;;6.97
19102;BMP280;9683;49.028;12.064;2023-12-20T06:05:38;97048.13;;;6.85
19102;BMP280;9683;49.028;12.064;2023-12-20T06:08:05;97072.53;;;6.94
19102;BMP280;9683;49.028;12.064;2023-12-20T06:10:31;97070.69;;;6.94
19102;BMP280;9683;49.028;12.064;2023-12-20T06:12:58;97001.34;;;6.53
19102;BMP280;9683;49.028;12.064;2023-12-20T06:15:26;97070.47;;;6.96
19102;BMP280;9683;49.028;12.064;2023-12-20T06:17:52;97077.59;;;6.95
19102;BMP280;9683;49.028;12.064;2023-12-20T06:20:19;97077.59;;;7.02
19102;BMP280;9683;49.028;12.064;2023-12-20T06:22:47;97081.66;;;7.04
19102;BMP280;9683;49.028;12.064;2023-12-20T06:25:13;97083.28;;;7.05
19102;BMP280;9683;49.028;12.064;2023-12-20T06:27:40;97082.91;;;7.02
19102;BMP280;9683;49.028;12.064;2023-12-20T06:30:07;97085.31;;;7.03
19102;BMP280;9683;49.028;12.064;2023-12-20T06:32:34;97096.31;;;7.07
19102;BMP280;9683;49.028;12.064;2023-12-20T06:35:01;97091.81;;;7.07
19102;BMP280;9683;49.028;12.064;2023-12-20T06:37:27;97090.22;;;7.06
19102;BMP280;9683;49.028;12.064;2023-12-20T06:39:55;97092.25;;;7.11
19102;BMP280;9683;49.028;12.064;2023-12-20T06:42:23;97093.66;;;7.13
19102;BMP280;9683;49.028;12.064;2023-12-20T06:44:49;97094.28;;;7.09
19102;BMP280;9683;49.028;12.064;2023-12-20T06:47:16;97095.88;;;7.03
19102;BMP280;9683;49.028;12.064;2023-12-20T06:49:43;97087.97;;;7.03
19102;BMP280;9683;49.028;12.064;2023-12-20T06:52:09;97079.03;;;6.91
19102;BMP280;9683;49.028;12.064;2023-12-20T06:54:36;97082.50;;;6.85
19102;BMP280;9683;49.028;12.064;2023-12-20T06:57:04;97108.72;;;7.00
19102;BMP280;9683;49.028;12.064;2023-12-20T06:59:30;97099.97;;;6.93
19102;BMP280;9683;49.028;12.064;2023-12-20T07:01:57;97126.03;;;7.02
19102;BMP280;9683;49.028;12.064;2023-12-20T07:04:23;97118.28;;;7.01
19102;BMP280;9683;49.028;12.064;2023-12-20T07:06:50;97121.53;;;7.03
19102;BMP280;9683;49.028;12.064;2023-12-20T07:09:19;97132.31;;;7.01
19102;BMP280;9683;49.028;12.064;2023-12-20T07:11:45;97135.16;;;7.00
19102;BMP280;9683;49.028;12.064;2023-12-20T07:14:13;97112.97;;;6.87
19102;BMP280;9683;49.028;12.064;2023-12-20T07:16:39;97139.84;;;6.98
19102;BMP280;9683;49.028;12.064;2023-12-20T07:19:06;97136.38;;;6.97
19102;BMP280;9683;49.028;12.064;2023-12-20T07:21:33;97130.09;;;6.98
19102;BMP280;9683;49.028;12.064;2023-12-20T07:23:59;97136.97;;;6.99
19102;BMP280;9683;49.028;12.064;2023-12-20T07:26:26;97126.22;;;6.94
19102;BMP280;9683;49.028;12.064;2023-12-20T07:28:52;97139.84;;;6.98
19102;BMP280;9683;49.028;12.064;2023-12-20T07:31:20;97129.06;;;6.93
19102;BMP280;9683;49.028;12.064;2023-12-20T07:33:47;97153.44;;;6.95
19102;BMP280;9683;49.028;12.064;2023-12-20T07:36:13;97149.19;;;6.94
19102;BMP280;9683;49.028;12.064;2023-12-20T07:38:39;97157.31;;;6.92
19102;BMP280;9683;49.028;12.064;2023-12-20T07:41:09;97173.19;;;6.92
19102;BMP280;9683;49.028;12.064;2023-12-20T07:43:35;97174.59;;;6.88
19102;BMP280;9683;49.028;12.064;2023-12-20T07:46:05;97176.03;;;6.90
19102;BMP280;9683;49.028;12.064;2023-12-20T07:48:34;97174.59;;;6.88
19102;BMP280;9683;49.028;12.064;2023-12-20T07:51:00;97187.22;;;6.86
19102;BMP280;9683;49.028;12.064;2023-12-20T07:53:27;97184.97;;;6.83
19102;BMP280;9683;49.028;12.064;2023-12-20T07:55:53;97184.78;;;6.84
19102;BMP280;9683;49.028;12.064;2023-12-20T07:58:20;97190.25;;;6.83
19102;BMP280;9683;49.028;12.064;2023-12-20T08:00:47;97194.94;;;6.81
19102;BMP280;9683;49.028;12.064;2023-12-20T08:03:13;97204.06;;;6.78
19102;BMP280;9683;49.028;12.064;2023-12-20T08:05:41;97142.63;;;6.50
19102;BMP280;9683;49.028;12.064;2023-12-20T08:08:08;97193.69;;;6.70
19102;BMP280;9683;49.028;12.064;2023-12-20T08:10:35;97195.31;;;6.71
19102;BMP280;9683;49.028;12.064;2023-12-20T08:13:01;97197.56;;;6.74
19102;BMP280;9683;49.028;12.064;2023-12-20T08:15:28;97196.53;;;6.75
19102;BMP280;9683;49.028;12.064;2023-12-20T08:17:54;97200.22;;;6.81
19102;BMP280;9683;49.028;12.064;2023-12-20T08:20:21;97210.41;;;6.84
19102;BMP280;9683;49.028;12.064;2023-12-20T08:22:49;97205.53;;;6.87
19102;BMP280;9683;49.028;12.064;2023-12-20T08:25:15;97203.28;;;6.84
19102;BMP280;9683;49.028;12.064;2023-12-20T08:27:42;97217.72;;;6.88
19102;BMP280;9683;49.028;12.064;2023-12-20T08:30:09;97207.38;;;6.94
19102;BMP280;9683;49.028;12.064;2023-12-20T08:32:36;97215.09;;;6.95
19102;BMP280;9683;49.028;12.064;2023-12-20T08:35:03;97210.63;;;6.96
19102;BMP280;9683;49.028;12.064;2023-12-20T08:37:31;97217.53;;;7.03
19102;BMP280;9683;49.028;12.064;2023-12-20T08:39:59;97214.50;;;7.06
19102;BMP280;9683;49.028;12.064;2023-12-20T08:42:25;97209.41;;;7.05
19102;BMP280;9683;49.028;12.064;2023-12-20T08:44:56;97219.78;;;7.00
19102;BMP280;9683;49.028;12.064;2023-12-20T08:47:23;97211.03;;;6.99
19102;BMP280;9683;49.028;12.064;2023-12-20T08:49:49;97221.63;;;7.06
19102;BMP280;9683;49.028;12.064;2023-12-20T08:52:16;97210.81;;;7.07
19102;BMP280;9683;49.028;12.064;2023-12-20T08:54:43;97212.47;;;7.08
19102;BMP280;9683;49.028;12.064;2023-12-20T08:57:11;97213.91;;;7.11
19102;BMP280;9683;49.028;12.064;2023-12-20T08:59:37;97212.88;;;7.12
19102;BMP280;9683;49.028;12.064;2023-12-20T09:02:04;97212.50;;;7.15
19102;BMP280;9683;49.028;12.064;2023-12-20T09:04:30;97208.03;;;7.15
19102;BMP280;9683;49.028;12.064;2023-12-20T09:06:59;97182.56;;;7.01
19102;BMP280;9683;49.028;12.064;2023-12-20T09:09:26;97195.19;;;7.12
19102;BMP280;9683;49.028;12.064;2023-12-20T09:11:52;97190.50;;;7.21
19102;BMP280;9683;49.028;12.064;2023-12-20T09:14:20;97194.19;;;7.26
19102;BMP280;9683;49.028;12.064;2023-12-20T09:16:47;97193.34;;;7.26
19102;BMP280;9683;49.028;12.064;2023-12-20T09:19:16;97197.41;;;7.28
19102;BMP280;9683;49.028;12.064;2023-12-20T09:21:42;97198.03;;;7.30
19102;BMP280;9683;49.028;12.064;2023-12-20T09:24:09;97192.94;;;7.29
19102;BMP280;9683;49.028;12.064;2023-12-20T09:26:36;97175.88;;;7.18
19102;BMP280;9683;49.028;12.064;2023-12-20T09:29:02;97188.25;;;7.24
19102;BMP280;9683;49.028;12.064;2023-12-20T09:31:31;97208.00;;;7.42
19102;BMP280;9683;49.028;12.064;2023-12-20T09:33:58;97217.38;;;7.44
19102;BMP280;9683;49.028;12.064;2023-12-20T09:36:24;97220.03;;;7.44
19102;BMP280;9683;49.028;12.064;2023-12-20T09:38:52;97215.94;;;7.42
19102;BMP280;9683;49.028;12.064;2023-12-20T09:41:19;97215.13;;;7.41
19102;BMP280;9683;49.028;12.064;2023-12-20T09:43:45;97202.72;;;7.42
19102;BMP280;9683;49.028;12.064;2023-12-20T09:46:14;97207.41;;;7.46
19102;BMP280;9683;49.028;12.064;2023-12-20T09:48:44;97205.38;;;7.48
19102;BMP280;9683;49.028;12.064;2023-12-20T09:51:11;97201.91;;;7.48
19102;BMP280;9683;49.028;12.064;2023-12-20T09:53:38;97202.50;;;7.50
19102;BMP280;9683;49.028;12.064;2023-12-20T09:56:06;97202.91;;;7.47
19102;BMP280;9683;49.028;12.064;2023-12-20T09:58:36;97191.31;;;7.48
19102;BMP280;9683;49.028;12.064;2023-12-20T10:01:03;97182.75;;;7.46
19102;BMP280;9683;49.028;12.064;2023-12-20T10:03:30;97153.06;;;7.30
19102;BMP280;9683;49.028;12.064;2023-12-20T10:05:58;97188.47;;;7.56
19102;BMP280;9683;49.028;12.064;2023-12-20T10:08:26;97196.59;;;7.61
19102;BMP280;9683;49.028;12.064;2023-12-20T10:10:55;97172.38;;;7.51
19102;BMP280;9683;49.028;12.064;2023-12-20T10:13:22;97169.94;;;7.56
19102;BMP280;9683;49.028;12.064;2023-12-20T10:15:49;97185.38;;;7.72
19102;BMP280;9683;49.028;12.064;2023-12-20T10:18:16;97178.84;;;7.81
19102;BMP280;9683;49.028;12.064;2023-12-20T10:20:42;97181.47;;;7.88
19102;BMP280;9683;49.028;12.064;2023-12-20T10:23:10;97189.81;;;7.98
19102;BMP280;9683;49.028;12.064;2023-12-20T10:25:37;97179.19;;;8.04
19102;BMP280;9683;49.028;12.064;2023-12-20T10:28:11;97166.56;;;8.06
19102;BMP280;9683;49.028;12.064;2023-12-20T10:30:38;97173.84;;;8.17
19102;BMP280;9683;49.028;12.064;2023-12-20T10:33:06;97143.78;;;7.99
19102;BMP280;9683;49.028;12.064;2023-12-20T10:35:33;97191.38;;;8.18
19102;BMP280;9683;49.028;12.064;2023-12-20T10:38:02;97176.69;;;8.22
19102;BMP280;9683;49.028;12.064;2023-12-20T10:40:31;97150.66;;;8.00
19102;BMP280;9683;49.028;12.064;2023-12-20T10:42:59;97182.84;;;8.16
19102;BMP280;9683;49.028;12.064;2023-12-20T10:45:26;97190.59;;;8.05
19102;BMP280;9683;49.028;12.064;2023-12-20T10:47:53;97178.78;;;8.01
19102;BMP280;9683;49.028;12.064;2023-12-20T10:50:20;97204.25;;;8.02
19102;BMP280;9683;49.028;12.064;2023-12-20T10:52:47;97199.16;;;8.00
19102;BMP280;9683;49.028;12.064;2023-12-20T10:55:13;97196.94;;;7.97
19102;BMP280;9683;49.028;12.064;2023-12-20T10:57:42;97186.53;;;7.96
19102;BMP280;9683;49.028;12.064;2023-12-20T11:00:14;97182.88;;;7.97
19102;BMP280;9683;49.028;12.064;2023-12-20T11:02:42;97167.41;;;7.94
19102;BMP280;9683;49.028;12.064;2023-12-20T11:05:17;97178.59;;;8.02
19102;BMP280;9683;49.028;12.064;2023-12-20T11:07:48;97173.91;;;7.98
19102;BMP280;9683;49.028;12.064;2023-12-20T11:10:19;97179.03;;;7.99
19102;BMP280;9683;49.028;12.064;2023-12-20T11:12:51;97183.09;;;7.95
19102;BMP280;9683;49.028;12.064;2023-12-20T11:15:19;97185.53;;;7.97
19102;BMP280;9683;49.028;12.064;2023-12-20T11:17:46;97178.00;;;7.94
19102;BMP280;9683;49.028;12.064;2023-12-20T11:20:12;97180.47;;;7.95
19102;BMP280;9683;49.028;12.064;2023-12-20T11:22:40;97173.53;;;7.94
19102;BMP280;9683;49.028;12.064;2023-12-20T11:25:17;97157.25;;;7.91
19102;BMP280;9683;49.028;12.064;2023-12-20T11:27:44;97095.63;;;7.51
19102;BMP280;9683;49.028;12.064;2023-12-20T11:30:14;97166.78;;;7.98
19102;BMP280;9683;49.028;12.064;2023-12-20T11:32:40;97148.88;;;7.94
19102;BMP280;9683;49.028;12.064;2023-12-20T11:35:18;97154.38;;;7.99
19102;BMP280;9683;49.028;12.064;2023-12-20T11:37:46;97146.66;;;7.91
19102;BMP280;9683;49.028;12.064;2023-12-20T11:40:15;97149.88;;;7.99
19102;BMP280;9683;49.028;12.064;2023-12-20T11:42:43;97154.75;;;7.96
19102;BMP280;9683;49.028;12.064;2023-12-20T11:45:10;97116.13;;;7.81
19102;BMP280;9683;49.028;12.064;2023-12-20T11:47:38;97149.25;;;7.97
19102;BMP280;9683;49.028;12.064;2023-12-20T11:50:05;97121.38;;;7.88
19102;BMP280;9683;49.028;12.064;2023-12-20T11:52:32;97136.63;;;7.99
19102;BMP280;9683;49.028;12.064;2023-12-20T11:54:59;97121.94;;;8.03
19102;BMP280;9683;49.028;12.064;2023-12-20T11:57:26;97125.41;;;8.04
19102;BMP280;9683;49.028;12.064;2023-12-20T11:59:52;97127.22;;;8.10
19102;BMP280;9683;49.028;12.064;2023-12-20T12:02:19;97136.16;;;8.15
19102;BMP280;9683;49.028;12.064;2023-12-20T12:04:48;97161.22;;;8.19
19102;BMP280;9683;49.028;12.064;2023-12-20T12:07:15;97125.50;;;8.28
19102;BMP280;9683;49.028;12.064;2023-12-20T12:09:42;97104.72;;;8.25
19102;BMP280;9683;49.028;12.064;2023-12-20T12:12:09;97104.31;;;8.28
19102;BMP280;9683;49.028;12.064;2023-12-20T12:14:37;97102.69;;;8.27
19102;BMP280;9683;49.028;12.064;2023-12-20T12:17:04;97120.00;;;8.30
19102;BMP280;9683;49.028;12.064;2023-12-20T12:19:31;97116.13;;;8.26
19102;BMP280;9683;49.028;12.064;2023-12-20T12:22:05;97108.59;;;8.29
19102;BMP280;9683;49.028;12.064;2023-12-20T12:24:33;97119.19;;;8.29
19102;BMP280;9683;49.028;12.064;2023-12-20T12:27:00;97123.06;;;8.27
19102;BMP280;9683;49.028;12.064;2023-12-20T12:29:27;97110.88;;;8.13
19102;BMP280;9683;49.028;12.064;2023-12-20T12:31:54;97128.84;;;8.11
19102;BMP280;9683;49.028;12.064;2023-12-20T12:34:20;97130.28;;;8.07
19102;BMP280;9683;49.028;12.064;2023-12-20T12:36:48;97134.97;;;8.05
19102;BMP280;9683;49.028;12.064;2023-12-20T12:39:17;97136.78;;;8.04
19102;BMP280;9683;49.028;12.064;2023-12-20T12:41:44;97128.66;;;8.06
19102;BMP280;9683;49.028;12.064;2023-12-20T12:44:10;97131.09;;;8.07
19102;BMP280;9683;49.028;12.064;2023-12-20T12:46:37;97068.50;;;7.68
19102;BMP280;9683;49.028;12.064;2023-12-20T12:49:03;97121.91;;;8.10
19102;BMP280;9683;49.028;12.064;2023-12-20T12:51:30;97139.63;;;8.09
19102;BMP280;9683;49.028;12.064;2023-12-20T12:53:57;97118.25;;;8.04
19102;BMP280;9683;49.028;12.064;2023-12-20T12:56:24;97135.78;;;8.05
19102;BMP280;9683;49.028;12.064;2023-12-20T12:58:51;97121.72;;;8.05
19102;BMP280;9683;49.028;12.064;2023-12-20T13:01:18;97114.59;;;8.05
19102;BMP280;9683;49.028;12.064;2023-12-20T13:03:44;97050.59;;;7.64
19102;BMP280;9683;49.028;12.064;2023-12-20T13:06:11;97111.56;;;8.02
19102;BMP280;9683;49.028;12.064;2023-12-20T13:08:37;97128.91;;;7.98
19102;BMP280;9683;49.028;12.064;2023-12-20T13:11:04;97090.84;;;7.86
19102;BMP280;9683;49.028;12.064;2023-12-20T13:13:32;97099.38;;;7.94
19102;BMP280;9683;49.028;12.064;2023-12-20T13:15:58;97112.38;;;7.96
19102;BMP280;9683;49.028;12.064;2023-12-20T13:18:26;97104.22;;;7.97
19102;BMP280;9683;49.028;12.064;2023-12-20T13:20:52;97103.59;;;8.02
19102;BMP280;9683;49.028;12.064;2023-12-20T13:23:19;97102.38;;;8.04
19102;BMP280;9683;49.028;12.064;2023-12-20T13:25:46;97106.44;;;8.07
19102;BMP280;9683;49.028;12.064;2023-12-20T13:28:13;97114.00;;;8.03
19102;BMP280;9683;49.028;12.064;2023-12-20T13:30:41;97121.53;;;8.00
19102;BMP280;9683;49.028;12.064;2023-12-20T13:33:07;97111.38;;;7.97
19102;BMP280;9683;49.028;12.064;2023-12-20T13:35:34;97118.50;;;7.96
19102;BMP280;9683;49.028;12.064;2023-12-20T13:38:00;97125.44;;;7.97
19102;BMP280;9683;49.028;12.064;2023-12-20T13:40:27;97138.66;;;7.97
19102;BMP280;9683;49.028;12.064;2023-12-20T13:42:53;97080.72;;;7.69
19102;BMP280;9683;49.028;12.064;2023-12-20T13:45:21;97125.66;;;7.89
19102;BMP280;9683;49.028;12.064;2023-12-20T13:47:48;97116.31;;;7.87
19102;BMP280;9683;49.028;12.064;2023-12-20T13:50:15;97127.13;;;7.72
19102;BMP280;9683;49.028;12.064;2023-12-20T13:52:42;97114.53;;;7.74
19102;BMP280;9683;49.028;12.064;2023-12-20T13:55:09;97110.81;;;7.75
19102;BMP280;9683;49.028;12.064;2023-12-20T13:57:35;97102.31;;;7.60
19102;BMP280;9683;49.028;12.064;2023-12-20T14:00:04;97121.84;;;7.72
19102;BMP280;9683;49.028;12.064;2023-12-20T14:02:31;97096.03;;;7.54
19102;BMP280;9683;49.028;12.064;2023-12-20T14:04:59;97115.97;;;7.70
19102;BMP280;9683;49.028;12.064;2023-12-20T14:07:26;97126.94;;;7.73
19102;BMP280;9683;49.028;12.064;2023-12-20T14:09:54;97119.19;;;7.72
19102;BMP280;9683;49.028;12.064;2023-12-20T14:12:21;97178.06;;;7.67
19102;BMP280;9683;49.028;12.064;2023-12-20T14:14:47;97142.63;;;7.62
19102;BMP280;9683;49.028;12.064;2023-12-20T14:17:14;97125.59;;;7.45
19102;BMP280;9683;49.028;12.064;2023-12-20T14:19:40;97188.66;;;7.54